Time;durP1;ratioP1;P1;durP2;ratioP2;P2;SDS_P1;SDS_P2;PMS_P1;PMS_P2;Temp;Humidity;BMP_temperature;BMP_pressure;BME280_temperature;BME280_humidity;BME280_pressure;Samples;Min_cycle;Max_cycle;Signal;HPM_P1;HPM_P2
2023/05/03 00:00:12;;;;;;;2.83;1.10;;;15.40;96.10;;;;;;6155529;23;20088;-65
2023/05/03 00:02:38;;;;;;;3.60;1.27;;;15.40;96.20;;;;;;6155352;23;20014;-65
2023/05/03 00:05:11;;;;;;;3.65;1.40;;;15.40;96.40;;;;;;6155337;23;19998;-65
2023/05/03 00:07:37;;;;;;;1.42;0.98;;;15.40;96.50;;;;;;6155315;23;20033;-65
2023/05/03 00:10:03;;;;;;;2.25;0.70;;;15.30;96.40;;;;;;6155545;23;20004;-66
2023/05/03 00:12:29;;;;;;;1.45;0.90;;;15.30;96.40;;;;;;6155394;23;20038;-65
2023/05/03 00:14:55;;;;;;;1.60;0.82;;;15.40;96.30;;;;;;6155421;23;20002;-65
2023/05/03 00:17:21;;;;;;;1.15;0.85;;;15.30;96.30;;;;;;6155477;23;20037;-65
2023/05/03 00:19:47;;;;;;;2.60;1.40;;;15.40;96.10;;;;;;6155879;23;20005;-66
2023/05/03 00:22:13;;;;;;;1.52;0.95;;;15.30;96.20;;;;;;6155308;23;20022;-65
2023/05/03 00:24:38;;;;;;;3.47;1.15;;;15.30;96.50;;;;;;6154956;23;20072;-65
2023/05/03 00:27:05;;;;;;;4.68;1.50;;;15.30;96.70;;;;;;6155371;23;20077;-65
2023/05/03 00:29:31;;;;;;;3.65;1.35;;;15.30;97.00;;;;;;6155741;23;20016;-65
2023/05/03 00:31:58;;;;;;;1.92;1.40;;;15.30;97.00;;;;;;6155112;23;20006;-65
2023/05/03 00:34:24;;;;;;;2.95;1.50;;;15.30;97.00;;;;;;6155092;23;20010;-66
2023/05/03 00:36:50;;;;;;;1.83;1.38;;;15.20;97.10;;;;;;6155257;23;20061;-65
2023/05/03 00:39:16;;;;;;;2.50;1.20;;;15.20;97.20;;;;;;6155273;23;20005;-65
2023/05/03 00:41:41;;;;;;;1.70;1.30;;;15.20;97.30;;;;;;6155060;23;20384;-65
2023/05/03 00:44:07;;;;;;;2.10;1.20;;;15.20;97.40;;;;;;6154894;23;19998;-66
2023/05/03 00:46:33;;;;;;;2.33;1.10;;;15.20;97.40;;;;;;6154932;23;20056;-65
2023/05/03 00:48:59;;;;;;;3.63;1.20;;;15.20;97.20;;;;;;6155027;23;20024;-65
2023/05/03 00:51:26;;;;;;;1.85;1.05;;;15.20;97.10;;;;;;6140954;23;20021;-65
2023/05/03 00:53:53;;;;;;;3.17;1.30;;;15.20;97.00;;;;;;6125457;23;20002;-66
2023/05/03 00:56:20;;;;;;;2.65;1.38;;;15.20;96.90;;;;;;6125300;23;19998;-65
2023/05/03 00:58:46;;;;;;;3.80;1.25;;;15.10;96.80;;;;;;6124920;23;20508;-66
2023/05/03 01:01:11;;;;;;;3.70;1.55;;;15.10;96.90;;;;;;6124240;23;20025;-66
2023/05/03 01:03:40;;;;;;;3.53;1.20;;;15.10;97.00;;;;;;6123956;23;20006;-64
2023/05/03 01:06:26;;;;;;;3.28;1.23;;;15.10;97.00;;;;;;6127030;23;20002;-65
2023/05/03 01:09:02;;;;;;;2.55;0.90;;;15.10;97.10;;;;;;6127237;23;20010;-66
2023/05/03 01:11:52;;;;;;;1.60;1.00;;;15.10;96.80;;;;;;6126851;23;20009;-66
2023/05/03 01:14:53;;;;;;;3.65;1.63;;;15.10;95.90;;;;;;6126512;23;20077;-66
2023/05/03 01:17:26;;;;;;;3.25;1.17;;;15.10;96.00;;;;;;6126637;23;20122;-65
2023/05/03 01:19:56;;;;;;;2.10;1.30;;;15.10;96.10;;;;;;6127107;23;20048;-65
2023/05/03 01:22:43;;;;;;;5.80;1.45;;;15.10;96.10;;;;;;6126974;23;20010;-65
2023/05/03 01:25:11;;;;;;;6.93;1.42;;;15.10;96.40;;;;;;6127202;23;20002;-65
2023/05/03 01:27:38;;;;;;;2.00;1.17;;;15.10;96.50;;;;;;6126471;23;20002;-65
2023/05/03 01:30:06;;;;;;;1.77;1.25;;;15.10;96.70;;;;;;6126838;23;20006;-65
2023/05/03 01:32:39;;;;;;;1.77;1.10;;;15.10;96.80;;;;;;6127183;23;20006;-65
2023/05/03 01:35:19;;;;;;;5.00;1.45;;;15.10;97.00;;;;;;6126580;23;20002;-65
2023/05/03 01:37:45;;;;;;;2.50;1.38;;;15.10;97.20;;;;;;6126805;23;20412;-65
2023/05/03 01:40:15;;;;;;;3.00;1.35;;;15.10;97.20;;;;;;6126626;23;20002;-66
2023/05/03 01:42:42;;;;;;;3.80;1.60;;;15.10;97.70;;;;;;6126366;23;20021;-66
2023/05/03 01:45:09;;;;;;;3.72;1.42;;;15.00;97.70;;;;;;6126913;23;19998;-65
2023/05/03 01:47:34;;;;;;;3.00;1.20;;;15.00;97.70;;;;;;6126986;23;20005;-65
2023/05/03 01:50:00;;;;;;;5.50;1.23;;;15.00;97.70;;;;;;6126832;23;20178;-66
2023/05/03 01:52:26;;;;;;;3.60;1.23;;;15.00;97.70;;;;;;6126440;23;20036;-65
2023/05/03 01:54:52;;;;;;;2.67;1.45;;;15.00;97.70;;;;;;6127298;23;19997;-65
2023/05/03 01:57:18;;;;;;;4.50;1.15;;;15.00;97.70;;;;;;6126746;23;20001;-66
2023/05/03 01:59:43;;;;;;;2.20;1.38;;;15.00;97.70;;;;;;6127019;23;20006;-66
2023/05/03 02:02:09;;;;;;;2.97;1.27;;;15.00;97.70;;;;;;6126646;23;20017;-65
2023/05/03 02:04:35;;;;;;;9.45;1.40;;;15.00;97.70;;;;;;6127111;23;20086;-65
2023/05/03 02:07:00;;;;;;;1.83;1.10;;;15.00;97.40;;;;;;6126760;23;20073;-65
2023/05/03 02:09:26;;;;;;;1.88;1.10;;;15.00;97.70;;;;;;6125712;23;20032;-65
2023/05/03 02:11:52;;;;;;;1.50;1.20;;;14.90;97.90;;;;;;6126774;23;20090;-66
2023/05/03 02:14:18;;;;;;;4.07;1.40;;;14.90;97.90;;;;;;6126876;23;20116;-65
2023/05/03 02:16:43;;;;;;;4.93;0.90;;;14.90;97.80;;;;;;6126501;23;20026;-65
2023/05/03 02:19:09;;;;;;;2.17;1.10;;;14.90;97.70;;;;;;6126522;23;20081;-66
2023/05/03 02:21:37;;;;;;;3.35;1.20;;;14.90;97.70;;;;;;6126608;23;20069;-65
2023/05/03 02:24:03;;;;;;;2.05;1.00;;;15.00;97.60;;;;;;6126495;23;20002;-66
2023/05/03 02:26:29;;;;;;;1.55;0.90;;;15.00;97.50;;;;;;6126425;23;20002;-66
2023/05/03 02:28:56;;;;;;;3.17;1.00;;;15.00;97.40;;;;;;6126850;23;20002;-65
2023/05/03 02:31:22;;;;;;;1.92;1.10;;;15.00;97.30;;;;;;6126441;23;20085;-65
2023/05/03 02:33:48;;;;;;;1.13;1.00;;;15.00;97.30;;;;;;6126663;23;20030;-65
2023/05/03 02:36:14;;;;;;;1.30;0.90;;;15.00;96.90;;;;;;6126018;23;20006;-65
2023/05/03 02:38:40;;;;;;;1.02;0.80;;;15.00;96.90;;;;;;6126340;23;20006;-65
2023/05/03 02:41:05;;;;;;;1.15;0.80;;;15.00;96.50;;;;;;6126430;23;20310;-65
2023/05/03 02:43:31;;;;;;;5.30;0.90;;;15.00;96.40;;;;;;6126239;23;20032;-65
2023/05/03 02:45:57;;;;;;;1.70;0.80;;;15.00;96.40;;;;;;6126245;23;20002;-65
2023/05/03 02:48:23;;;;;;;2.47;0.90;;;15.00;96.60;;;;;;6126050;23;20081;-65
2023/05/03 02:50:48;;;;;;;1.85;0.85;;;15.00;96.80;;;;;;6125987;23;20400;-65
2023/05/03 02:53:14;;;;;;;1.48;0.90;;;15.00;96.80;;;;;;6100196;23;20014;-65
2023/05/03 02:55:40;;;;;;;2.72;0.80;;;14.90;96.80;;;;;;6126212;23;20005;-65
2023/05/03 02:58:06;;;;;;;1.85;0.80;;;14.90;97.20;;;;;;6126663;23;20017;-65
2023/05/03 03:00:32;;;;;;;3.20;0.90;;;14.90;97.20;;;;;;6126422;23;20010;-65
2023/05/03 03:02:58;;;;;;;1.85;0.80;;;14.90;97.30;;;;;;6126692;23;20010;-66
2023/05/03 03:05:24;;;;;;;2.08;0.75;;;14.90;97.20;;;;;;6127900;23;20002;-66
2023/05/03 03:07:50;;;;;;;3.00;0.80;;;14.90;97.10;;;;;;6127441;23;20002;-65
2023/05/03 03:10:15;;;;;;;2.28;0.70;;;14.90;96.80;;;;;;6126008;23;20005;-65
2023/05/03 03:12:42;;;;;;;1.58;0.85;;;14.90;96.60;;;;;;6126077;23;20010;-66
2023/05/03 03:15:08;;;;;;;0.73;0.60;;;14.90;96.70;;;;;;6125980;23;20008;-65
2023/05/03 03:17:37;;;;;;;0.90;0.60;;;14.80;96.70;;;;;;6125971;23;20002;-65
2023/05/03 03:20:05;;;;;;;0.52;0.47;;;14.80;96.70;;;;;;6125906;23;20006;-65
2023/05/03 03:22:31;;;;;;;1.25;0.60;;;14.90;96.70;;;;;;6126089;23;20010;-65
2023/05/03 03:24:57;;;;;;;0.98;0.75;;;14.90;96.70;;;;;;6126103;23;20056;-65
2023/05/03 03:27:22;;;;;;;0.93;0.70;;;14.80;96.80;;;;;;6125985;23;20006;-65
2023/05/03 03:29:48;;;;;;;1.25;0.70;;;14.90;97.10;;;;;;6125827;23;20002;-65
2023/05/03 03:32:14;;;;;;;1.00;0.70;;;14.80;96.90;;;;;;6126134;23;20029;-66
2023/05/03 03:34:40;;;;;;;1.20;0.80;;;14.80;96.90;;;;;;6126096;23;20009;-65
2023/05/03 03:37:06;;;;;;;2.08;0.85;;;14.80;96.80;;;;;;6125996;23;20013;-65
2023/05/03 03:39:31;;;;;;;1.23;0.60;;;14.80;96.70;;;;;;6126078;23;20006;-65
2023/05/03 03:41:57;;;;;;;3.42;0.90;;;14.80;96.70;;;;;;6125863;23;20014;-65
2023/05/03 03:44:23;;;;;;;1.35;0.55;;;14.80;96.80;;;;;;6125564;23;20002;-65
2023/05/03 03:46:49;;;;;;;1.00;0.82;;;14.90;96.90;;;;;;6125881;23;20088;-64
2023/05/03 03:49:14;;;;;;;3.17;1.20;;;14.80;96.90;;;;;;6125507;23;20006;-65
2023/05/03 03:51:40;;;;;;;1.20;0.80;;;14.80;96.80;;;;;;6125649;23;20097;-65
2023/05/03 03:54:06;;;;;;;2.38;0.80;;;14.80;96.90;;;;;;6125964;23;20025;-65
2023/05/03 03:56:31;;;;;;;0.60;0.60;;;14.80;96.90;;;;;;6126028;23;20006;-65
2023/05/03 03:58:57;;;;;;;2.42;0.88;;;14.80;97.20;;;;;;6125909;23;20005;-66
2023/05/03 04:01:23;;;;;;;1.33;0.90;;;14.70;97.10;;;;;;6125751;23;20081;-66
2023/05/03 04:03:48;;;;;;;2.17;0.73;;;14.70;97.30;;;;;;6125542;23;20006;-65
2023/05/03 04:06:14;;;;;;;3.42;0.80;;;14.70;97.40;;;;;;6125432;23;20030;-65
2023/05/03 04:08:40;;;;;;;2.22;0.98;;;14.70;97.00;;;;;;6125891;23;20010;-65
2023/05/03 04:11:10;;;;;;;1.67;0.93;;;14.70;97.30;;;;;;6125861;23;20024;-66
2023/05/03 04:13:36;;;;;;;2.72;1.13;;;14.70;97.30;;;;;;6125860;23;20006;-65
2023/05/03 04:16:02;;;;;;;1.50;1.08;;;14.70;97.30;;;;;;6125762;23;20008;-65
2023/05/03 04:18:28;;;;;;;2.33;0.93;;;14.70;97.20;;;;;;6125639;23;20009;-65
2023/05/03 04:20:54;;;;;;;2.67;0.80;;;14.70;97.10;;;;;;6125715;23;20002;-65
2023/05/03 04:23:19;;;;;;;0.80;0.60;;;14.70;97.00;;;;;;6125577;23;20010;-65
2023/05/03 04:25:47;;;;;;;6.40;1.40;;;14.80;96.80;;;;;;6125822;23;19998;-65
2023/05/03 04:28:14;;;;;;;2.90;1.88;;;14.80;96.70;;;;;;6125826;23;20329;-65
2023/05/03 04:30:42;;;;;;;3.42;2.40;;;14.80;96.70;;;;;;6125958;23;20069;-65
2023/05/03 04:33:08;;;;;;;3.42;1.88;;;14.80;96.60;;;;;;6127435;23;20002;-65
2023/05/03 04:35:34;;;;;;;2.00;1.80;;;14.80;96.50;;;;;;6127403;23;20040;-66
2023/05/03 04:38:01;;;;;;;1.98;1.45;;;14.80;96.60;;;;;;6127792;23;20002;-64
2023/05/03 04:40:28;;;;;;;4.65;1.23;;;14.80;96.50;;;;;;6127550;23;20001;-65
2023/05/03 04:42:54;;;;;;;1.50;1.10;;;14.80;96.30;;;;;;6127262;23;20037;-65
2023/05/03 04:45:20;;;;;;;2.33;1.38;;;14.90;96.00;;;;;;6127461;23;20078;-65
2023/05/03 04:47:47;;;;;;;1.80;1.60;;;14.90;95.90;;;;;;6127501;23;20037;-65
2023/05/03 04:50:12;;;;;;;2.17;1.60;;;14.90;96.00;;;;;;6127440;23;20002;-66
2023/05/03 04:52:38;;;;;;;2.40;1.48;;;14.90;96.10;;;;;;6127188;23;20088;-65
2023/05/03 04:55:04;;;;;;;2.20;1.10;;;14.90;96.20;;;;;;6127429;23;20005;-65
2023/05/03 04:57:31;;;;;;;1.20;1.10;;;15.00;96.20;;;;;;6127680;23;20018;-65
2023/05/03 04:59:57;;;;;;;2.05;1.00;;;15.00;96.20;;;;;;6127530;23;20057;-65
2023/05/03 05:02:23;;;;;;;1.45;1.08;;;15.00;96.20;;;;;;6127411;23;20013;-66
2023/05/03 05:04:48;;;;;;;2.50;1.02;;;15.00;96.20;;;;;;6127811;23;20012;-65
2023/05/03 05:07:15;;;;;;;1.80;1.00;;;15.00;96.20;;;;;;6127276;23;20006;-65
2023/05/03 05:09:40;;;;;;;3.40;0.90;;;15.00;96.30;;;;;;6127291;23;20005;-66
2023/05/03 05:12:06;;;;;;;1.48;0.90;;;15.00;95.50;;;;;;6127201;23;20009;-65
2023/05/03 05:14:32;;;;;;;3.45;0.85;;;15.00;95.60;;;;;;6127448;23;20006;-65
2023/05/03 05:16:58;;;;;;;4.07;1.90;;;15.00;95.60;;;;;;6127495;23;20001;-65
2023/05/03 05:19:24;;;;;;;1.95;0.63;;;15.00;95.70;;;;;;6126914;23;20006;-65
2023/05/03 05:21:51;;;;;;;3.33;1.13;;;15.00;95.80;;;;;;6127056;23;20073;-65
2023/05/03 05:24:16;;;;;;;7.38;0.85;;;15.00;95.20;;;;;;6127158;23;20002;-65
2023/05/03 05:26:42;;;;;;;1.67;1.13;;;15.10;94.90;;;;;;6127243;23;20013;-65
2023/05/03 05:29:08;;;;;;;1.88;0.80;;;15.10;94.60;;;;;;6127285;23;20006;-65
2023/05/03 05:31:35;;;;;;;1.75;1.10;;;15.10;94.60;;;;;;6127453;23;20014;-66
2023/05/03 05:34:01;;;;;;;3.35;1.45;;;15.10;94.90;;;;;;6127026;23;20002;-65
2023/05/03 05:36:27;;;;;;;2.20;1.33;;;15.10;94.90;;;;;;6126950;23;20412;-65
2023/05/03 05:38:52;;;;;;;1.92;1.30;;;15.10;95.00;;;;;;6127439;23;20029;-65
2023/05/03 05:41:18;;;;;;;3.42;1.25;;;15.20;94.00;;;;;;6126589;23;20002;-64
2023/05/03 05:43:44;;;;;;;1.65;1.20;;;15.20;93.80;;;;;;6126766;23;20014;-65
2023/05/03 05:46:10;;;;;;;5.15;1.30;;;15.20;93.90;;;;;;6126557;23;20447;-66
2023/05/03 05:48:36;;;;;;;1.90;1.10;;;15.30;94.30;;;;;;6126693;23;20014;-65
2023/05/03 05:51:01;;;;;;;2.65;1.40;;;15.30;94.70;;;;;;6126435;23;20018;-66
2023/05/03 05:53:27;;;;;;;1.60;1.10;;;15.30;94.80;;;;;;6126380;23;20072;-65
2023/05/03 05:55:53;;;;;;;2.78;1.15;;;15.30;94.90;;;;;;6126058;23;20009;-65
2023/05/03 05:58:19;;;;;;;1.85;1.15;;;15.30;94.80;;;;;;6126680;23;20006;-65
2023/05/03 06:00:47;;;;;;;1.83;0.80;;;15.40;94.80;;;;;;6127169;23;20006;-65
2023/05/03 06:03:14;;;;;;;2.90;0.90;;;15.40;94.40;;;;;;6126385;23;20022;-66
2023/05/03 06:05:42;;;;;;;3.58;1.02;;;15.50;94.00;;;;;;6126682;23;20029;-65
2023/05/03 06:08:08;;;;;;;8.45;0.98;;;15.50;94.00;;;;;;6126254;23;20006;-66
2023/05/03 06:10:33;;;;;;;3.35;1.40;;;15.60;94.90;;;;;;6126082;23;20033;-66
2023/05/03 06:12:59;;;;;;;3.92;1.30;;;15.60;93.80;;;;;;6126683;23;20017;-64
2023/05/03 06:15:26;;;;;;;2.42;1.15;;;15.60;93.70;;;;;;6126276;23;20017;-64
2023/05/03 06:17:52;;;;;;;8.60;1.83;;;15.60;93.60;;;;;;6126314;23;20114;-65
2023/05/03 06:20:17;;;;;;;11.40;2.55;;;15.60;94.40;;;;;;6124276;23;20498;-66
2023/05/03 06:22:43;;;;;;;11.75;1.90;;;15.70;94.00;;;;;;6124556;23;20092;-66
2023/05/03 06:25:09;;;;;;;15.88;2.15;;;15.70;93.60;;;;;;6099293;23;20010;-66
2023/05/03 06:27:37;;;;;;;10.10;1.95;;;15.70;93.60;;;;;;6126063;23;20002;-66
2023/05/03 06:30:03;;;;;;;10.45;1.52;;;15.80;93.50;;;;;;6126113;23;20364;-65
2023/05/03 06:32:29;;;;;;;10.32;1.65;;;15.80;93.10;;;;;;6125517;23;20002;-65
2023/05/03 06:34:55;;;;;;;14.20;1.80;;;15.80;92.90;;;;;;6125798;23;20029;-66
2023/05/03 06:37:21;;;;;;;7.80;1.45;;;15.90;93.00;;;;;;6125685;23;20104;-66
2023/05/03 06:39:49;;;;;;;10.95;1.27;;;15.90;93.00;;;;;;6125706;23;20061;-65
2023/05/03 06:42:15;;;;;;;12.45;2.42;;;15.90;92.50;;;;;;6125567;23;20077;-65
2023/05/03 06:44:41;;;;;;;9.32;1.52;;;16.00;92.20;;;;;;6099286;23;20409;-64
2023/05/03 06:47:07;;;;;;;11.52;1.42;;;16.00;92.20;;;;;;6125413;23;20002;-66
2023/05/03 06:49:33;;;;;;;9.55;1.73;;;16.00;92.10;;;;;;6126143;23;20005;-64
2023/05/03 06:51:59;;;;;;;9.70;1.30;;;16.00;92.10;;;;;;6125344;23;20393;-65
2023/05/03 06:54:24;;;;;;;10.50;1.40;;;16.10;92.40;;;;;;6125412;23;20028;-66
2023/05/03 06:56:50;;;;;;;14.23;1.45;;;16.10;92.50;;;;;;6125915;23;20028;-65
2023/05/03 06:59:16;;;;;;;5.43;1.15;;;16.10;92.20;;;;;;6125599;23;20029;-66
2023/05/03 07:01:42;;;;;;;12.45;1.73;;;16.10;92.00;;;;;;6125480;23;20089;-66
2023/05/03 07:04:08;;;;;;;7.43;1.25;;;16.10;92.60;;;;;;6124963;23;20090;-66
2023/05/03 07:06:33;;;;;;;3.55;1.23;;;16.10;92.10;;;;;;6124915;23;19998;-67
2023/05/03 07:08:59;;;;;;;4.38;1.02;;;16.20;91.80;;;;;;6125448;23;20012;-67
2023/05/03 07:11:25;;;;;;;1.90;0.73;;;16.20;91.50;;;;;;6125991;23;20069;-66
2023/05/03 07:13:54;;;;;;;3.63;1.00;;;16.20;91.30;;;;;;6123165;23;20006;-67
2023/05/03 07:16:20;;;;;;;5.10;0.95;;;16.20;91.10;;;;;;6124855;23;20058;-67
2023/05/03 07:18:48;;;;;;;4.18;0.90;;;16.20;90.70;;;;;;6125194;23;20008;-68
2023/05/03 07:21:14;;;;;;;4.07;0.70;;;16.20;90.70;;;;;;6124586;23;19998;-67
2023/05/03 07:23:40;;;;;;;2.90;0.60;;;16.20;90.70;;;;;;6124765;23;20106;-66
2023/05/03 07:26:07;;;;;;;5.10;0.70;;;16.20;90.50;;;;;;6125356;23;19998;-67
2023/05/03 07:28:33;;;;;;;4.05;0.95;;;16.30;90.50;;;;;;6124757;23;20440;-69
2023/05/03 07:30:59;;;;;;;1.05;0.60;;;16.30;90.10;;;;;;6124639;23;20002;-70
2023/05/03 07:33:25;;;;;;;2.80;0.52;;;16.30;90.20;;;;;;6124725;23;20002;-66
2023/05/03 07:35:51;;;;;;;1.05;0.50;;;16.30;90.60;;;;;;6124921;23;20006;-68
2023/05/03 07:38:17;;;;;;;1.25;0.35;;;16.30;90.40;;;;;;6124867;23;20310;-66
2023/05/03 07:40:43;;;;;;;0.40;0.38;;;16.30;90.10;;;;;;6124999;23;20038;-67
2023/05/03 07:43:09;;;;;;;1.83;0.43;;;16.30;89.60;;;;;;6124428;23;20037;-67
2023/05/03 07:45:35;;;;;;;2.72;0.60;;;16.30;89.00;;;;;;6124556;23;20006;-66
2023/05/03 07:48:03;;;;;;;4.90;0.50;;;16.40;89.00;;;;;;6123788;23;20428;-66
2023/05/03 07:50:28;;;;;;;3.08;0.50;;;16.30;88.80;;;;;;6124320;23;20005;-67
2023/05/03 07:52:55;;;;;;;1.83;0.60;;;16.40;87.20;;;;;;6124719;23;20425;-67
2023/05/03 07:55:21;;;;;;;0.50;0.40;;;16.40;87.90;;;;;;6124890;23;20085;-67
2023/05/03 07:57:47;;;;;;;3.05;0.50;;;16.40;87.50;;;;;;6116463;23;20389;-66
2023/05/03 08:00:13;;;;;;;1.70;0.52;;;16.40;86.80;;;;;;6125650;23;20002;-66
2023/05/03 08:02:39;;;;;;;1.30;0.43;;;16.40;86.20;;;;;;6125952;23;20014;-67
2023/05/03 08:05:06;;;;;;;1.88;0.40;;;16.50;86.80;;;;;;6125565;23;20448;-67
2023/05/03 08:07:32;;;;;;;2.22;0.40;;;16.50;87.30;;;;;;6127465;23;20037;-66
2023/05/03 08:09:58;;;;;;;1.17;0.38;;;16.50;87.30;;;;;;6127453;23;20005;-67
2023/05/03 08:12:27;;;;;;;1.80;0.60;;;16.50;86.60;;;;;;6127732;23;20130;-66
2023/05/03 08:14:54;;;;;;;0.55;0.40;;;16.50;86.00;;;;;;6127299;23;20002;-66
2023/05/03 08:17:21;;;;;;;2.95;0.50;;;16.50;85.50;;;;;;6126116;23;20002;-66
2023/05/03 08:19:51;;;;;;;1.75;0.50;;;16.60;85.30;;;;;;6127051;23;20010;-66
2023/05/03 08:22:17;;;;;;;1.75;0.80;;;16.60;85.00;;;;;;6126245;23;20032;-66
2023/05/03 08:24:42;;;;;;;1.75;0.60;;;16.60;84.60;;;;;;6127399;23;20041;-66
2023/05/03 08:27:09;;;;;;;1.88;0.70;;;16.70;84.80;;;;;;6127405;23;20435;-66
2023/05/03 08:29:38;;;;;;;2.03;0.47;;;16.70;83.50;;;;;;6100338;23;20010;-67
2023/05/03 08:32:04;;;;;;;1.23;0.60;;;16.70;84.40;;;;;;6125782;23;20010;-66
2023/05/03 08:34:31;;;;;;;4.90;0.70;;;16.70;84.90;;;;;;6126149;23;20009;-66
2023/05/03 08:36:57;;;;;;;0.93;0.65;;;16.70;83.80;;;;;;6125303;23;20009;-66
2023/05/03 08:39:25;;;;;;;0.63;0.45;;;16.70;84.20;;;;;;6125923;23;20002;-66
2023/05/03 08:41:53;;;;;;;1.42;0.68;;;16.70;83.80;;;;;;6101356;23;20006;-66
2023/05/03 08:44:22;;;;;;;2.20;0.77;;;16.70;84.20;;;;;;6126903;23;20014;-66
2023/05/03 08:46:48;;;;;;;1.10;0.50;;;16.70;86.40;;;;;;6127048;23;19998;-66
2023/05/03 08:49:16;;;;;;;2.10;0.40;;;16.80;86.00;;;;;;6126692;23;20006;-66
2023/05/03 08:51:45;;;;;;;2.88;0.45;;;16.80;85.40;;;;;;6127220;23;20029;-66
2023/05/03 08:54:13;;;;;;;1.02;0.50;;;16.80;84.80;;;;;;6127437;23;20017;-67
2023/05/03 08:56:41;;;;;;;2.85;0.50;;;16.90;83.80;;;;;;6127240;23;19998;-65
2023/05/03 08:59:07;;;;;;;0.47;0.47;;;16.90;82.00;;;;;;6127806;23;20096;-66
2023/05/03 09:01:38;;;;;;;1.42;0.70;;;16.90;81.50;;;;;;6101639;23;20122;-66
2023/05/03 09:04:05;;;;;;;3.28;0.68;;;16.90;82.20;;;;;;6127621;23;20013;-65
2023/05/03 09:06:34;;;;;;;2.78;0.80;;;17.00;83.10;;;;;;6127327;23;20034;-66
2023/05/03 09:09:00;;;;;;;0.95;0.47;;;17.00;83.00;;;;;;6127016;23;20129;-66
2023/05/03 09:11:31;;;;;;;2.63;0.70;;;17.00;83.80;;;;;;6126819;23;19998;-66
2023/05/03 09:14:16;;;;;;;0.93;0.60;;;17.00;84.20;;;;;;6127436;23;20018;-66
2023/05/03 09:16:43;;;;;;;1.38;0.65;;;17.00;84.70;;;;;;6126943;23;19998;-65
2023/05/03 09:19:11;;;;;;;3.15;0.60;;;17.10;84.50;;;;;;6127118;23;20012;-66
2023/05/03 09:21:45;;;;;;;0.65;0.50;;;17.10;83.40;;;;;;6127151;23;20072;-66
2023/05/03 09:24:15;;;;;;;1.45;0.50;;;17.10;82.20;;;;;;6126985;23;20002;-66
2023/05/03 09:26:42;;;;;;;1.02;0.47;;;17.20;80.90;;;;;;6127177;23;20033;-65
2023/05/03 09:29:09;;;;;;;0.68;0.50;;;17.20;80.90;;;;;;6127264;23;20014;-68
2023/05/03 09:31:35;;;;;;;2.13;0.50;;;17.20;78.30;;;;;;6127259;23;20021;-67
2023/05/03 09:34:03;;;;;;;4.07;0.60;;;17.30;78.70;;;;;;6127000;23;20030;-66
2023/05/03 09:36:45;;;;;;;3.55;0.47;;;17.30;78.40;;;;;;6126965;23;20018;-67
2023/05/03 09:39:18;;;;;;;0.50;0.50;;;17.40;78.00;;;;;;6126355;23;20025;-66
2023/05/03 09:41:45;;;;;;;0.60;0.50;;;17.40;78.40;;;;;;6126460;23;20017;-66
2023/05/03 09:44:11;;;;;;;2.80;0.60;;;17.50;78.00;;;;;;6127112;23;20089;-67
2023/05/03 09:46:37;;;;;;;1.30;0.40;;;17.50;78.00;;;;;;6126707;23;20013;-66
2023/05/03 09:49:03;;;;;;;1.92;0.57;;;17.50;77.90;;;;;;6126775;23;20016;-66
2023/05/03 09:51:33;;;;;;;1.05;0.60;;;17.50;77.50;;;;;;6126076;23;20448;-67
2023/05/03 09:53:59;;;;;;;0.47;0.40;;;17.50;77.00;;;;;;6126224;23;20005;-66
2023/05/03 09:56:25;;;;;;;3.13;0.60;;;17.50;77.00;;;;;;6126961;23;20044;-66
2023/05/03 09:58:53;;;;;;;1.80;0.80;;;17.60;76.50;;;;;;6126407;23;20002;-65
2023/05/03 10:01:21;;;;;;;1.23;0.57;;;17.60;77.70;;;;;;6126372;23;20013;-67
2023/05/03 10:03:50;;;;;;;0.70;0.68;;;17.60;78.30;;;;;;6126313;23;20020;-65
2023/05/03 10:06:23;;;;;;;1.00;0.40;;;17.60;74.40;;;;;;6127100;23;20018;-67
2023/05/03 10:09:11;;;;;;;1.05;0.45;;;17.70;75.10;;;;;;6126301;23;20002;-67
2023/05/03 10:11:36;;;;;;;0.70;0.50;;;17.70;74.30;;;;;;6126216;23;20065;-66
2023/05/03 10:14:05;;;;;;;1.25;0.50;;;17.70;74.30;;;;;;6126010;23;20089;-66
2023/05/03 10:16:40;;;;;;;0.60;0.40;;;17.70;75.20;;;;;;6124223;23;20006;-66
2023/05/03 10:19:15;;;;;;;2.22;0.60;;;17.80;76.10;;;;;;6123453;23;20006;-65
2023/05/03 10:22:08;;;;;;;1.77;0.45;;;17.80;76.40;;;;;;6123669;23;20433;-66
2023/05/03 10:24:35;;;;;;;1.40;0.80;;;17.80;77.20;;;;;;6123553;23;20002;-67
2023/05/03 10:27:01;;;;;;;2.13;0.60;;;17.90;78.50;;;;;;6123122;23;20049;-67
2023/05/03 10:29:45;;;;;;;1.30;0.57;;;17.90;78.50;;;;;;6124069;23;20424;-66
2023/05/03 10:32:30;;;;;;;2.03;0.80;;;17.90;79.30;;;;;;6123257;23;20022;-68
2023/05/03 10:35:02;;;;;;;1.35;0.55;;;17.90;79.30;;;;;;6125545;23;20223;-66
2023/05/03 10:37:29;;;;;;;1.25;0.60;;;18.00;79.40;;;;;;6125586;23;20015;-66
2023/05/03 10:39:55;;;;;;;1.55;0.60;;;18.00;79.60;;;;;;6125572;23;19998;-66
2023/05/03 10:42:23;;;;;;;0.47;0.47;;;18.00;79.60;;;;;;6125707;23;20010;-66
2023/05/03 10:44:54;;;;;;;1.40;0.98;;;18.10;80.30;;;;;;6099548;23;20009;-66
2023/05/03 10:47:22;;;;;;;1.10;0.60;;;18.10;79.10;;;;;;6099473;23;20314;-66
2023/05/03 10:50:10;;;;;;;0.90;0.40;;;18.10;79.10;;;;;;6125776;23;20026;-66
2023/05/03 10:52:38;;;;;;;1.48;0.85;;;18.10;80.30;;;;;;6125454;23;20041;-67
2023/05/03 10:55:13;;;;;;;1.30;0.57;;;18.20;80.60;;;;;;6125837;23;20069;-66
2023/05/03 10:57:43;;;;;;;0.60;0.60;;;18.20;81.20;;;;;;6125889;23;20002;-66
2023/05/03 11:00:31;;;;;;;0.60;0.52;;;18.20;82.10;;;;;;6125625;23;20057;-66
2023/05/03 11:13:26;;;;;;;0.70;0.60;;;18.20;81.60;;;;;;5038673;27;2102022;-67
2023/05/03 11:15:55;;;;;;;0.85;0.60;;;18.20;82.70;;;;;;5089908;28;20035;-67
2023/05/03 11:18:22;;;;;;;3.20;0.70;;;18.10;81.90;;;;;;5089248;28;20111;-67
2023/05/03 11:20:48;;;;;;;3.75;1.10;;;18.10;82.10;;;;;;5089262;28;20075;-67
2023/05/03 11:23:14;;;;;;;6.20;1.92;;;18.10;82.90;;;;;;5089711;28;20111;-67
2023/05/03 11:25:40;;;;;;;11.70;2.80;;;18.10;84.30;;;;;;5089806;28;20108;-68
2023/05/03 11:28:06;;;;;;;3.13;1.27;;;18.10;85.20;;;;;;5071360;28;20033;-68
2023/05/03 11:30:33;;;;;;;2.72;1.02;;;18.10;85.30;;;;;;5088993;28;20542;-67
2023/05/03 11:33:00;;;;;;;1.48;0.80;;;18.10;85.30;;;;;;5086389;28;20024;-67
2023/05/03 11:35:28;;;;;;;1.60;0.80;;;18.10;85.90;;;;;;5086604;28;20039;-68
2023/05/03 11:37:55;;;;;;;2.65;0.80;;;18.20;86.40;;;;;;5088025;28;20023;-67
2023/05/03 11:40:21;;;;;;;3.97;0.90;;;18.20;86.40;;;;;;5089107;28;20031;-67
2023/05/03 11:42:53;;;;;;;1.27;0.68;;;18.20;85.70;;;;;;5089108;28;20032;-68
2023/05/03 11:45:21;;;;;;;1.65;0.77;;;18.30;85.90;;;;;;5089277;28;20028;-68
2023/05/03 11:47:47;;;;;;;6.68;0.90;;;18.40;86.30;;;;;;5089568;28;20027;-68
2023/05/03 11:50:13;;;;;;;3.95;0.90;;;18.40;85.80;;;;;;5088929;28;20020;-67
2023/05/03 11:52:40;;;;;;;2.15;1.10;;;18.40;85.70;;;;;;5088801;28;20386;-67
2023/05/03 11:55:07;;;;;;;1.48;0.85;;;18.50;84.60;;;;;;5088825;28;20491;-68
2023/05/03 11:57:32;;;;;;;1.85;0.90;;;18.50;85.10;;;;;;5088870;28;20051;-67
2023/05/03 12:00:16;;;;;;;1.13;0.80;;;18.50;85.00;;;;;;5088867;28;20029;-67
2023/05/03 12:02:43;;;;;;;2.03;0.95;;;18.60;83.60;;;;;;5088568;28;20520;-70
2023/05/03 12:05:10;;;;;;;1.17;0.70;;;18.60;83.10;;;;;;5088813;28;20016;-68
2023/05/03 12:07:37;;;;;;;1.02;0.80;;;18.60;82.30;;;;;;5088327;28;20097;-67
2023/05/03 12:10:17;;;;;;;2.40;0.73;;;18.60;81.50;;;;;;5088582;28;20378;-66
2023/05/03 12:12:56;;;;;;;1.48;0.70;;;18.60;81.00;;;;;;5084309;28;20049;-66
2023/05/03 12:15:34;;;;;;;1.10;0.70;;;18.70;81.50;;;;;;5074349;28;20024;-67
2023/05/03 12:18:01;;;;;;;4.15;0.75;;;18.70;81.30;;;;;;5075032;28;20033;-67
2023/05/03 12:20:31;;;;;;;1.23;0.65;;;18.70;80.50;;;;;;5074966;28;20025;-67
2023/05/03 12:23:04;;;;;;;2.22;1.00;;;18.70;80.30;;;;;;5074634;28;20037;-67
2023/05/03 12:25:31;;;;;;;1.52;0.95;;;18.70;79.80;;;;;;5072819;28;20032;-67
2023/05/03 12:27:59;;;;;;;0.98;0.70;;;18.70;79.60;;;;;;5072378;28;20029;-67
2023/05/03 12:30:25;;;;;;;4.22;1.02;;;18.70;79.50;;;;;;5073759;28;20028;-67
2023/05/03 12:32:52;;;;;;;1.88;1.02;;;18.70;79.30;;;;;;5075061;28;20024;-68
2023/05/03 12:35:19;;;;;;;2.15;0.80;;;18.70;79.40;;;;;;5057008;28;20500;-66
2023/05/03 12:37:45;;;;;;;0.98;0.80;;;18.70;80.10;;;;;;5074533;28;20029;-68
2023/05/03 12:40:12;;;;;;;1.30;0.80;;;18.70;79.80;;;;;;5074627;28;20036;-68
2023/05/03 12:42:39;;;;;;;1.02;0.73;;;18.70;79.20;;;;;;5074878;28;20421;-67
2023/05/03 12:45:05;;;;;;;1.88;0.88;;;18.70;78.90;;;;;;5074936;28;20084;-67
2023/05/03 12:47:31;;;;;;;2.97;0.85;;;18.70;79.20;;;;;;5074346;28;20537;-67
2023/05/03 12:49:56;;;;;;;0.90;0.75;;;18.70;79.10;;;;;;5074326;28;20097;-67
2023/05/03 12:52:22;;;;;;;2.33;0.88;;;18.70;78.80;;;;;;5074216;28;20363;-67
2023/05/03 12:54:48;;;;;;;1.15;0.80;;;18.70;79.00;;;;;;5074659;28;20051;-67
2023/05/03 12:57:14;;;;;;;2.65;1.00;;;18.70;79.30;;;;;;5074438;28;20034;-67